Time;durP1;ratioP1;P1;durP2;ratioP2;P2;SDS_P1;SDS_P2;PMS_P1;PMS_P2;Temp;Humidity;BMP_temperature;BMP_pressure;BME280_temperature;BME280_humidity;BME280_pressure;Samples;Min_cycle;Max_cycle;Signal;HPM_P1;HPM_P2
2022/04/07 00:04:05;;;;;;;8.37;1.80;;;;;9.90;98874.00;;;;10553104;28;20203;-79
2022/04/07 00:09:07;;;;;;;3.03;1.53;;;;;9.90;98864.00;;;;10570885;28;20216;-79
2022/04/07 00:14:09;;;;;;;6.80;2.00;;;;;9.90;98847.00;;;;10536389;28;20196;-79
2022/04/07 00:19:10;;;;;;;5.47;1.60;;;;;10.00;98840.00;;;;10586141;28;20257;-78
2022/04/07 00:24:13;;;;;;;4.10;1.90;;;;;10.00;98840.00;;;;10527570;28;20230;-79
2022/04/07 00:29:17;;;;;;;3.20;1.50;;;;;10.00;98830.00;;;;10547869;27;20303;-79
2022/04/07 00:34:19;;;;;;;4.67;1.90;;;;;9.90;98837.00;;;;10594867;27;20223;-79
2022/04/07 00:39:21;;;;;;;6.33;1.70;;;;;9.70;98818.00;;;;10594507;27;20207;-79
2022/04/07 00:44:24;;;;;;;6.67;1.70;;;;;9.60;98804.00;;;;10610949;27;20203;-80
2022/04/07 00:49:26;;;;;;;7.70;1.90;;;;;9.70;98799.00;;;;10565069;28;20208;-80
2022/04/07 00:54:29;;;;;;;7.33;2.23;;;;;9.70;98786.00;;;;10527937;28;20216;-80
2022/04/07 00:59:33;;;;;;;4.37;1.50;;;;;9.80;98779.00;;;;10552300;28;20184;-80
2022/04/07 01:04:35;;;;;;;4.70;1.93;;;;;9.80;98768.00;;;;10543444;28;20197;-80
2022/04/07 01:09:38;;;;;;;8.20;2.07;;;;;9.90;98762.00;;;;10509202;28;20681;-78
2022/04/07 01:14:56;;;;;;;3.00;1.50;;;;;9.90;98750.00;;;;10525461;28;20197;-78
2022/04/07 01:19:58;;;;;;;5.00;2.30;;;;;10.00;98741.00;;;;10527288;28;20204;-80
2022/04/07 01:25:00;;;;;;;6.23;1.87;;;;;10.00;98724.00;;;;10541921;28;20189;-80
2022/04/07 01:30:08;;;;;;;3.03;1.63;;;;;10.10;98729.00;;;;10576883;27;20199;-80
2022/04/07 01:35:11;;;;;;;4.73;1.77;;;;;10.10;98713.00;;;;10570871;27;20558;-80
2022/04/07 01:40:21;;;;;;;4.47;2.10;;;;;10.10;98710.00;;;;10549657;28;20216;-79
2022/04/07 01:45:23;;;;;;;6.67;2.20;;;;;10.10;98715.00;;;;10532511;28;20200;-80
2022/04/07 01:50:26;;;;;;;2.83;1.67;;;;;10.00;98673.00;;;;10549752;28;20570;-80
2022/04/07 01:55:28;;;;;;;7.87;1.97;;;;;10.00;98696.00;;;;10507823;28;20207;-80
2022/04/07 02:00:30;;;;;;;4.23;1.90;;;;;10.00;98678.00;;;;10524319;28;20197;-80
2022/04/07 02:05:33;;;;;;;5.80;2.07;;;;;10.00;98682.00;;;;10523168;28;20193;-79
2022/04/07 02:10:35;;;;;;;5.60;2.10;;;;;9.90;98669.00;;;;10539898;28;20219;-80
2022/04/07 02:15:37;;;;;;;8.43;2.13;;;;;9.80;98653.00;;;;10506462;28;20242;-79
2022/04/07 02:20:39;;;;;;;4.47;1.67;;;;;9.70;98645.00;;;;10523356;28;20656;-79
2022/04/07 02:25:40;;;;;;;8.60;2.03;;;;;9.70;98636.00;;;;10564987;28;20242;-79
2022/04/07 02:30:42;;;;;;;7.60;2.33;;;;;9.80;98620.00;;;;10570908;27;20319;-79
2022/04/07 02:35:45;;;;;;;3.77;1.23;;;;;9.80;98626.00;;;;10573133;27;20191;-79
2022/04/07 02:40:47;;;;;;;8.40;2.00;;;;;9.90;98614.00;;;;10589601;27;20215;-79
2022/04/07 02:45:49;;;;;;;5.83;1.50;;;;;9.90;98603.00;;;;10605997;27;20202;-78
2022/04/07 02:50:51;;;;;;;5.27;1.67;;;;;9.90;98587.00;;;;10563317;28;20200;-79
2022/04/07 02:55:53;;;;;;;4.40;2.50;;;;;10.00;98563.00;;;;10515420;28;20602;-78
2022/04/07 03:00:58;;;;;;;4.20;1.73;;;;;10.00;98571.00;;;;10521696;28;20193;-79
2022/04/07 03:06:00;;;;;;;5.67;2.00;;;;;10.00;98539.00;;;;10521619;28;20717;-79
2022/04/07 03:11:03;;;;;;;5.47;1.73;;;;;10.00;98544.00;;;;10488837;28;20212;-79
2022/04/07 03:16:06;;;;;;;4.23;1.60;;;;;10.00;98543.00;;;;10521821;28;20606;-80
2022/04/07 03:21:08;;;;;;;4.73;1.63;;;;;10.10;98510.00;;;;10543329;28;20237;-79
2022/04/07 03:26:10;;;;;;;3.43;1.40;;;;;10.10;98528.00;;;;10581144;28;20237;-79
2022/04/07 03:31:12;;;;;;;3.57;1.10;;;;;10.00;98510.00;;;;10505989;28;20200;-80
2022/04/07 03:36:14;;;;;;;3.30;1.30;;;;;10.00;98505.00;;;;10488348;28;20204;-79
2022/04/07 03:41:16;;;;;;;3.63;1.10;;;;;9.80;98499.00;;;;10532395;28;20188;-79
2022/04/07 03:46:21;;;;;;;3.00;1.10;;;;;9.70;98491.00;;;;10524206;28;20678;-81
2022/04/07 03:51:23;;;;;;;5.57;1.60;;;;;9.50;98493.00;;;;10511546;28;20212;-82
2022/04/07 03:56:25;;;;;;;2.73;1.03;;;;;9.30;98494.00;;;;10490297;28;20193;-80
2022/04/07 04:01:27;;;;;;;4.40;1.57;;;;;9.10;98490.00;;;;10517800;28;20650;-79
2022/04/07 04:06:30;;;;;;;2.03;1.30;;;;;9.10;98495.00;;;;10494130;28;20567;-79
2022/04/07 04:11:32;;;;;;;2.63;1.50;;;;;9.10;98462.00;;;;10495599;28;20259;-80
2022/04/07 04:16:34;;;;;;;2.43;1.90;;;;;9.10;98435.00;;;;10528592;28;20193;-80
2022/04/07 04:21:36;;;;;;;2.67;1.60;;;;;9.10;98415.00;;;;10495832;27;20211;-80
2022/04/07 04:26:39;;;;;;;2.80;2.03;;;;;9.20;98391.00;;;;10554691;28;20194;-81
2022/04/07 04:31:41;;;;;;;3.10;2.30;;;;;9.20;98389.00;;;;10553888;28;20966;-81
2022/04/07 04:36:43;;;;;;;4.57;1.97;;;;;9.20;98370.00;;;;10523023;28;20374;-81
2022/04/07 04:41:45;;;;;;;4.97;2.53;;;;;9.10;98361.00;;;;10521678;28;20222;-80
2022/04/07 04:46:48;;;;;;;4.20;1.93;;;;;9.10;98353.00;;;;10520883;28;20192;-80
2022/04/07 04:51:50;;;;;;;7.67;2.33;;;;;9.00;98320.00;;;;10506055;28;20698;-81
2022/04/07 04:56:51;;;;;;;5.17;1.87;;;;;9.00;98331.00;;;;10536478;28;20520;-80
2022/04/07 05:01:53;;;;;;;4.60;1.67;;;;;9.00;98272.00;;;;10520238;28;20275;-80
2022/04/07 05:06:56;;;;;;;7.40;1.90;;;;;9.00;98286.00;;;;10569234;28;20233;-80
2022/04/07 05:11:58;;;;;;;2.50;1.40;;;;;9.10;98258.00;;;;10535700;28;20216;-79
2022/04/07 05:16:59;;;;;;;5.23;1.60;;;;;9.10;98239.00;;;;10517794;28;20194;-79
2022/04/07 05:22:01;;;;;;;4.03;1.30;;;;;9.20;98221.00;;;;10564215;27;20661;-79
2022/04/07 05:27:04;;;;;;;10.67;2.60;;;;;9.30;98195.00;;;;10593544;27;20183;-79
2022/04/07 05:32:06;;;;;;;8.10;2.73;;;;;9.40;98172.00;;;;10508441;28;20208;-79
2022/04/07 05:37:08;;;;;;;7.07;2.30;;;;;9.50;98159.00;;;;10491379;28;20213;-81
2022/04/07 05:42:10;;;;;;;4.17;1.77;;;;;9.60;98126.00;;;;10509099;28;20191;-80
2022/04/07 05:47:12;;;;;;;3.70;1.33;;;;;9.70;98124.00;;;;10517598;28;20245;-80
2022/04/07 05:52:14;;;;;;;2.90;0.90;;;;;9.70;98107.00;;;;10536593;28;20215;-80
2022/04/07 05:57:16;;;;;;;5.27;1.37;;;;;9.70;98103.00;;;;10547358;28;20777;-79
2022/04/07 06:02:17;;;;;;;4.23;1.47;;;;;9.80;98075.00;;;;10515513;28;20193;-81
2022/04/07 06:07:19;;;;;;;4.20;1.70;;;;;9.70;98061.00;;;;10514514;28;20191;-80
2022/04/07 06:12:21;;;;;;;4.27;1.80;;;;;9.70;98051.00;;;;10548605;28;20216;-80
2022/04/07 06:17:41;;;;;;;5.23;2.17;;;;;9.70;98036.00;;;;10534045;28;20241;-81
2022/04/07 06:22:44;;;;;;;4.93;1.80;;;;;9.80;98044.00;;;;10534642;28;20192;-81
2022/04/07 06:27:47;;;;;;;5.90;1.93;;;;;9.80;98007.00;;;;10492380;28;20189;-80
2022/04/07 06:32:49;;;;;;;3.37;2.10;;;;;10.30;98024.00;;;;10509403;28;20235;-81
2022/04/07 06:37:55;;;;;;;4.70;1.77;;;;;10.20;98002.00;;;;10491319;28;20213;-79
2022/04/07 06:42:59;;;;;;;4.40;2.10;;;;;10.60;97968.00;;;;10504407;28;20680;-81
2022/04/07 06:48:01;;;;;;;3.03;2.13;;;;;10.20;97964.00;;;;10534842;28;20193;-80
2022/04/07 06:53:04;;;;;;;5.20;2.70;;;;;10.30;97959.00;;;;10518348;28;20223;-81
2022/04/07 06:58:08;;;;;;;9.63;2.93;;;;;10.50;97928.00;;;;10533715;28;20260;-82
2022/04/07 07:03:13;;;;;;;3.80;2.67;;;;;10.80;97931.00;;;;10507671;28;20201;-81
2022/04/07 07:08:21;;;;;;;4.17;2.87;;;;;11.00;97915.00;;;;10492682;28;20553;-80
2022/04/07 07:13:23;;;;;;;8.37;4.23;;;;;11.00;97904.00;;;;10475538;28;20667;-81
2022/04/07 07:18:28;;;;;;;6.27;3.53;;;;;11.80;97886.00;;;;10508628;28;20185;-81
2022/04/07 07:23:32;;;;;;;2.63;2.23;;;;;11.70;97874.00;;;;10520211;28;20222;-81
2022/04/07 07:28:34;;;;;;;1.83;1.73;;;;;11.20;97889.00;;;;10510130;28;20220;-80
2022/04/07 07:33:36;;;;;;;2.53;1.70;;;;;10.90;97887.00;;;;10508275;28;20213;-80
2022/04/07 07:38:37;;;;;;;1.40;0.97;;;;;10.80;97912.00;;;;10494287;28;20216;-81
2022/04/07 07:43:39;;;;;;;6.07;1.07;;;;;10.80;97918.00;;;;10499641;28;20193;-82
2022/04/07 07:48:41;;;;;;;3.33;1.37;;;;;10.80;97926.00;;;;10521259;28;20192;-80
2022/04/07 07:53:45;;;;;;;2.37;1.20;;;;;10.80;97933.00;;;;10584597;27;20257;-81
2022/04/07 07:58:47;;;;;;;1.60;1.00;;;;;11.40;97922.00;;;;10582375;27;20487;-81
2022/04/07 08:03:49;;;;;;;1.00;0.90;;;;;11.70;97906.00;;;;10521584;27;20273;-81
2022/04/07 08:08:51;;;;;;;2.03;0.90;;;;;11.70;97892.00;;;;10549650;28;20278;-80
2022/04/07 08:13:56;;;;;;;1.37;0.90;;;;;11.20;97939.00;;;;10553293;28;20208;-82
2022/04/07 08:18:58;;;;;;;1.17;1.07;;;;;11.10;97976.00;;;;10533298;28;20235;-81
2022/04/07 08:24:00;;;;;;;1.73;0.83;;;;;11.00;97981.00;;;;10581710;27;20192;-81
2022/04/07 08:29:02;;;;;;;2.73;0.50;;;;;10.80;97956.00;;;;10561385;27;20249;-81
2022/04/07 08:34:04;;;;;;;2.23;0.67;;;;;10.70;98007.00;;;;10578254;27;20306;-81
2022/04/07 08:39:10;;;;;;;0.80;0.60;;;;;10.80;98001.00;;;;10562402;27;20561;-81
2022/04/07 08:44:12;;;;;;;1.63;0.80;;;;;11.10;98009.00;;;;10535759;28;20253;-80
2022/04/07 08:49:16;;;;;;;0.63;0.50;;;;;11.10;97983.00;;;;10503503;28;20641;-80
2022/04/07 08:54:22;;;;;;;1.07;0.70;;;;;11.90;97983.00;;;;10496524;28;20699;-80
2022/04/07 08:59:24;;;;;;;0.73;0.57;;;;;12.30;97975.00;;;;10493593;28;20223;-80
2022/04/07 09:04:30;;;;;;;3.93;0.70;;;;;12.50;97978.00;;;;10476451;28;20193;-80
2022/04/07 09:09:33;;;;;;;1.27;0.73;;;;;12.50;97986.00;;;;10477135;28;20570;-80
2022/04/07 09:14:37;;;;;;;1.23;0.80;;;;;12.50;97993.00;;;;10476163;28;20192;-80
2022/04/07 09:19:39;;;;;;;2.77;0.50;;;;;12.40;97978.00;;;;10497754;28;20257;-80
2022/04/07 09:24:42;;;;;;;3.43;0.77;;;;;12.90;97976.00;;;;10574833;28;20188;-80
2022/04/07 09:29:46;;;;;;;1.93;0.90;;;;;13.60;97977.00;;;;10550168;28;20200;-78
2022/04/07 09:34:59;;;;;;;1.77;0.70;;;;;14.40;97988.00;;;;10524217;28;20283;-80
2022/04/07 09:40:06;;;;;;;3.17;1.07;;;;;14.70;97978.00;;;;10507427;28;20211;-81
2022/04/07 09:45:12;;;;;;;4.80;0.70;;;;;14.20;97987.00;;;;10474912;28;20205;-78
2022/04/07 09:50:20;;;;;;;3.53;1.00;;;;;14.70;97997.00;;;;10502011;28;20259;-77
2022/04/07 09:55:27;;;;;;;2.83;0.90;;;;;15.00;98031.00;;;;10507305;28;20659;-77
2022/04/07 10:00:29;;;;;;;3.65;0.90;;;;;15.30;98024.00;;;;10527546;28;20605;-78
2022/04/07 10:05:31;;;;;;;2.35;1.02;;;;;15.50;98014.00;;;;10564876;28;20652;-77
2022/04/07 10:10:35;;;;;;;3.35;1.33;;;;;15.70;98013.00;;;;10548572;28;20619;-78
2022/04/07 10:15:37;;;;;;;3.95;1.35;;;;;15.80;98037.00;;;;10531621;28;20196;-78
2022/04/07 10:20:44;;;;;;;3.45;0.90;;;;;15.90;98042.00;;;;10547032;28;20200;-78
2022/04/07 10:25:50;;;;;;;2.88;0.93;;;;;16.20;98049.00;;;;10505646;28;20192;-78
2022/04/07 10:30:54;;;;;;;3.40;1.30;;;;;16.60;98062.00;;;;10529856;28;20208;-78
2022/04/07 10:35:56;;;;;;;6.03;1.98;;;;;16.80;98056.00;;;;10514098;28;20192;-78
2022/04/07 10:41:01;;;;;;;4.47;1.20;;;;;17.50;98061.00;;;;10531079;28;20192;-78
2022/04/07 10:46:06;;;;;;;4.57;1.45;;;;;17.30;98057.00;;;;10546692;28;20253;-77
2022/04/07 10:51:10;;;;;;;5.28;1.17;;;;;17.20;98077.00;;;;10519127;27;20732;-77
2022/04/07 10:56:35;;;;;;;6.80;1.73;;;;;17.20;98079.00;;;;10590304;27;20195;-77
2022/04/07 11:01:37;;;;;;;6.40;1.60;;;;;17.60;98058.00;;;;10588560;27;20195;-78
2022/04/07 11:06:39;;;;;;;3.85;1.27;;;;;17.50;98097.00;;;;10589254;28;20219;-78
2022/04/07 11:11:51;;;;;;;5.32;1.10;;;;;17.30;98086.00;;;;10572809;27;20208;-77
2022/04/07 11:16:58;;;;;;;5.80;1.58;;;;;16.60;98086.00;;;;10566253;27;20200;-78
2022/04/07 11:22:07;;;;;;;4.68;1.42;;;;;16.80;98087.00;;;;10555562;28;20199;-79
2022/04/07 11:27:33;;;;;;;5.03;1.42;;;;;17.00;98093.00;;;;10571503;28;20651;-78
2022/04/07 11:32:36;;;;;;;9.13;1.73;;;;;18.40;98088.00;;;;10537820;28;20226;-78
2022/04/07 11:37:40;;;;;;;6.32;1.88;;;;;18.90;98120.00;;;;10537362;28;20226;-77
2022/04/07 11:42:42;;;;;;;5.95;1.95;;;;;18.90;98119.00;;;;10528258;28;20192;-78
2022/04/07 11:47:49;;;;;;;6.45;1.60;;;;;17.90;98138.00;;;;10516826;28;20200;-77
2022/04/07 11:52:50;;;;;;;8.20;1.98;;;;;18.30;98145.00;;;;10529672;28;20234;-78
2022/04/07 11:58:00;;;;;;;6.18;2.00;;;;;19.60;98145.00;;;;10535976;28;20196;-78
2022/04/07 12:03:08;;;;;;;7.82;2.05;;;;;19.60;98140.00;;;;10553263;28;20191;-78
2022/04/07 12:08:14;;;;;;;7.95;2.38;;;;;19.60;98163.00;;;;10570068;28;20193;-77
2022/04/07 12:13:16;;;;;;;7.95;2.30;;;;;18.40;98165.00;;;;10536152;28;20237;-77
2022/04/07 12:18:26;;;;;;;7.53;1.98;;;;;18.60;98204.00;;;;10553257;28;20210;-78
2022/04/07 12:23:28;;;;;;;7.28;1.95;;;;;17.90;98209.00;;;;10534458;28;20242;-78
2022/04/07 12:28:38;;;;;;;6.70;2.35;;;;;16.40;98209.00;;;;10535187;28;20573;-78
2022/04/07 12:33:46;;;;;;;7.57;1.90;;;;;16.30;98219.00;;;;10551341;28;20682;-78
2022/04/07 12:39:03;;;;;;;11.80;2.28;;;;;16.00;98231.00;;;;10518173;28;20212;-77
2022/04/07 12:44:06;;;;;;;11.15;2.67;;;;;15.60;98242.00;;;;10535527;28;20196;-77
2022/04/07 12:49:08;;;;;;;12.10;2.03;;;;;15.30;98230.00;;;;10567377;28;20223;-77
2022/04/07 12:54:15;;;;;;;13.02;2.45;;;;;15.90;98261.00;;;;10514415;28;20244;-77
2022/04/07 12:59:20;;;;;;;15.15;3.08;;;;;16.10;98249.00;;;;10509498;28;20196;-78
2022/04/07 13:04:22;;;;;;;6.30;1.92;;;;;16.70;98254.00;;;;10476962;28;20587;-77
2022/04/07 13:09:24;;;;;;;8.63;2.28;;;;;16.80;98261.00;;;;10493382;28;20197;-78
2022/04/07 13:14:26;;;;;;;6.75;2.25;;;;;16.60;98291.00;;;;10535942;28;20213;-80
2022/04/07 13:19:28;;;;;;;9.98;1.88;;;;;16.90;98294.00;;;;10512755;28;20216;-78
2022/04/07 13:24:31;;;;;;;8.73;2.72;;;;;16.60;98291.00;;;;10569401;27;20249;-77
2022/04/07 13:29:33;;;;;;;11.57;2.30;;;;;15.50;98296.00;;;;10596729;27;20689;-77
2022/04/07 13:34:34;;;;;;;13.10;2.70;;;;;16.60;98300.00;;;;10518951;28;20216;-77
2022/04/07 13:39:36;;;;;;;11.98;2.80;;;;;15.70;98307.00;;;;10551087;28;20273;-78
2022/04/07 13:44:58;;;;;;;8.57;2.33;;;;;15.70;98292.00;;;;10509731;28;20209;-78
2022/04/07 13:50:01;;;;;;;6.80;2.08;;;;;16.00;98313.00;;;;10535624;28;20197;-78
2022/04/07 13:55:03;;;;;;;11.95;2.53;;;;;19.00;98266.00;;;;10532013;28;20209;-78
2022/04/07 14:00:06;;;;;;;8.85;2.33;;;;;18.60;98311.00;;;;10493252;28;20185;-79
2022/04/07 14:05:14;;;;;;;9.07;1.80;;;;;19.60;98317.00;;;;10527685;28;20280;-77
2022/04/07 14:10:17;;;;;;;11.48;3.25;;;;;16.60;98328.00;;;;10492655;28;20185;-78
2022/04/07 14:15:19;;;;;;;8.07;2.28;;;;;15.60;98329.00;;;;10543885;28;20658;-77
2022/04/07 14:20:22;;;;;;;12.32;3.05;;;;;16.00;98352.00;;;;10509772;28;20196;-79
2022/04/07 14:25:24;;;;;;;8.50;2.40;;;;;16.20;98335.00;;;;10594596;27;20196;-78
2022/04/07 14:30:26;;;;;;;11.60;3.20;;;;;15.20;98356.00;;;;10555647;27;20192;-79
2022/04/07 14:35:30;;;;;;;10.60;3.00;;;;;15.10;98327.00;;;;10533190;28;20196;-78
2022/04/07 14:40:32;;;;;;;6.83;2.70;;;;;15.00;98354.00;;;;10517484;28;20219;-78
2022/04/07 14:45:34;;;;;;;11.03;3.10;;;;;15.50;98339.00;;;;10532436;28;20862;-78
2022/04/07 14:50:37;;;;;;;10.83;2.90;;;;;19.80;98311.00;;;;10508907;28;20193;-77
2022/04/07 14:55:39;;;;;;;10.73;2.97;;;;;19.40;98371.00;;;;10590893;27;20638;-78
2022/04/07 15:00:42;;;;;;;12.63;2.60;;;;;17.40;98377.00;;;;10559923;27;20187;-78
2022/04/07 15:05:44;;;;;;;9.18;2.20;;;;;19.60;98323.00;;;;10517750;28;20206;-78
2022/04/07 15:10:46;;;;;;;10.75;2.28;;;;;17.40;98370.00;;;;10493685;28;20820;-79
2022/04/07 15:15:48;;;;;;;9.73;2.72;;;;;19.40;98369.00;;;;10510070;28;20192;-78
2022/04/07 15:20:50;;;;;;;8.43;2.47;;;;;16.90;98386.00;;;;10537729;28;20200;-79
2022/04/07 15:25:52;;;;;;;5.00;2.15;;;;;15.80;98392.00;;;;10554016;28;20195;-78
2022/04/07 15:30:54;;;;;;;11.15;2.30;;;;;17.20;98396.00;;;;10536795;28;20284;-79
2022/04/07 15:35:56;;;;;;;8.88;2.42;;;;;17.20;98378.00;;;;10550808;28;20189;-79
2022/04/07 15:41:05;;;;;;;6.80;2.30;;;;;16.30;98391.00;;;;10551077;28;20246;-79
2022/04/07 15:46:13;;;;;;;9.13;2.38;;;;;15.00;98398.00;;;;10534579;28;20200;-78
2022/04/07 15:51:15;;;;;;;13.63;2.53;;;;;15.40;98409.00;;;;10535106;28;20240;-79
2022/04/07 15:56:17;;;;;;;10.83;2.73;;;;;14.60;98418.00;;;;10550404;28;20253;-79
2022/04/07 16:01:19;;;;;;;7.73;2.00;;;;;14.30;98428.00;;;;10539180;28;20188;-79
2022/04/07 16:06:21;;;;;;;8.17;2.83;;;;;15.00;98443.00;;;;10542376;28;20270;-79
2022/04/07 16:11:23;;;;;;;6.07;1.50;;;;;15.00;98453.00;;;;10541279;28;20209;-79
2022/04/07 16:16:25;;;;;;;8.27;2.10;;;;;14.70;98467.00;;;;10541244;28;20195;-79
2022/04/07 16:21:27;;;;;;;5.37;1.67;;;;;14.30;98438.00;;;;10524938;28;20558;-78
2022/04/07 16:26:30;;;;;;;12.13;2.63;;;;;14.00;98457.00;;;;10558718;28;20692;-79
2022/04/07 16:31:33;;;;;;;8.10;1.93;;;;;14.00;98485.00;;;;10557349;28;20295;-78
2022/04/07 16:36:35;;;;;;;7.30;1.87;;;;;13.80;98491.00;;;;10540815;28;20216;-79
2022/04/07 16:41:37;;;;;;;9.03;2.13;;;;;13.60;98502.00;;;;10524634;28;20191;-78
2022/04/07 16:46:39;;;;;;;9.83;2.50;;;;;13.40;98497.00;;;;10526615;28;20665;-78
2022/04/07 16:51:41;;;;;;;16.23;2.73;;;;;13.00;98521.00;;;;10523517;28;20273;-78
2022/04/07 16:56:43;;;;;;;9.90;2.50;;;;;12.90;98516.00;;;;10522247;28;20196;-79
2022/04/07 17:01:50;;;;;;;9.67;2.10;;;;;12.80;98521.00;;;;10538965;28;20188;-78
2022/04/07 17:06:54;;;;;;;8.10;2.67;;;;;12.60;98534.00;;;;10522181;28;20193;-79
2022/04/07 17:12:06;;;;;;;10.73;2.53;;;;;12.40;98546.00;;;;10514216;28;20276;-78
2022/04/07 17:17:08;;;;;;;15.33;2.07;;;;;12.40;98553.00;;;;10517856;28;20189;-78
2022/04/07 17:22:11;;;;;;;12.07;2.07;;;;;13.00;98554.00;;;;10509919;28;20212;-78
2022/04/07 17:27:13;;;;;;;8.50;2.00;;;;;12.70;98559.00;;;;10554479;28;20192;-79
2022/04/07 17:32:16;;;;;;;6.50;1.80;;;;;12.30;98563.00;;;;10510393;28;20259;-79
2022/04/07 17:37:18;;;;;;;7.00;2.20;;;;;12.00;98585.00;;;;10497839;28;20224;-81
2022/04/07 17:42:26;;;;;;;12.53;1.93;;;;;11.70;98592.00;;;;10517068;28;20250;-78
2022/04/07 17:47:28;;;;;;;9.87;2.50;;;;;11.60;98598.00;;;;10515148;28;20688;-79
2022/04/07 17:52:30;;;;;;;18.63;2.73;;;;;11.50;98611.00;;;;10510785;28;20216;-79
2022/04/07 17:57:34;;;;;;;12.53;2.40;;;;;11.40;98624.00;;;;10535707;28;20196;-78
2022/04/07 18:02:36;;;;;;;12.07;2.53;;;;;11.40;98632.00;;;;10553975;28;20193;-78
2022/04/07 18:07:39;;;;;;;13.07;2.40;;;;;11.30;98657.00;;;;10537926;28;20775;-79
2022/04/07 18:12:41;;;;;;;13.87;2.60;;;;;11.00;98685.00;;;;10571354;28;20204;-78
2022/04/07 18:17:43;;;;;;;10.47;3.07;;;;;10.90;98671.00;;;;10542544;28;20222;-79
2022/04/07 18:22:47;;;;;;;11.07;2.77;;;;;10.80;98702.00;;;;10515346;28;20196;-79
2022/04/07 18:27:50;;;;;;;9.37;2.33;;;;;10.70;98700.00;;;;10540574;28;20246;-79
2022/04/07 18:32:52;;;;;;;14.17;3.33;;;;;10.60;98723.00;;;;10554600;28;20208;-78
2022/04/07 18:37:54;;;;;;;17.63;2.87;;;;;10.60;98738.00;;;;10521338;28;20250;-79
2022/04/07 18:42:57;;;;;;;10.03;2.57;;;;;10.60;98730.00;;;;10536892;28;20312;-79
2022/04/07 18:48:01;;;;;;;15.67;3.07;;;;;10.50;98760.00;;;;10518794;28;20651;-79
2022/04/07 18:53:02;;;;;;;12.23;2.70;;;;;10.40;98755.00;;;;10550432;28;20249;-78
2022/04/07 18:58:04;;;;;;;10.13;2.40;;;;;10.20;98777.00;;;;10519083;28;20188;-79
2022/04/07 19:03:06;;;;;;;9.60;2.53;;;;;10.10;98765.00;;;;10508671;28;20208;-81
2022/04/07 19:08:08;;;;;;;12.47;2.80;;;;;10.10;98782.00;;;;10474281;28;20232;-81
2022/04/07 19:13:10;;;;;;;19.27;2.80;;;;;10.00;98808.00;;;;10493331;28;20626;-79
2022/04/07 19:18:12;;;;;;;12.33;2.70;;;;;10.00;98817.00;;;;10476913;28;20228;-79
2022/04/07 19:23:14;;;;;;;12.33;3.00;;;;;9.90;98829.00;;;;10540171;28;20191;-79
2022/04/07 19:28:17;;;;;;;12.83;2.40;;;;;9.90;98825.00;;;;10512914;28;20565;-80
2022/04/07 19:33:19;;;;;;;19.67;3.80;;;;;10.00;98840.00;;;;10518989;28;20219;-78
2022/04/07 19:38:21;;;;;;;16.40;3.37;;;;;10.00;98871.00;;;;10529866;28;20219;-79
2022/04/07 19:43:23;;;;;;;10.40;2.37;;;;;10.00;98871.00;;;;10543645;28;20733;-79
2022/04/07 19:48:25;;;;;;;7.27;2.30;;;;;9.90;98888.00;;;;10542725;28;20668;-79
2022/04/07 19:53:27;;;;;;;8.03;2.10;;;;;9.90;98878.00;;;;10568106;27;20673;-78
2022/04/07 19:58:29;;;;;;;11.90;2.83;;;;;9.80;98888.00;;;;10568577;27;20233;-79
2022/04/07 20:03:31;;;;;;;14.77;2.90;;;;;9.70;98905.00;;;;10583728;27;20286;-79
2022/04/07 20:08:33;;;;;;;13.07;2.47;;;;;9.50;98910.00;;;;10566932;27;20195;-79
2022/04/07 20:13:36;;;;;;;16.13;2.57;;;;;9.50;98912.00;;;;10550983;27;20208;-79
2022/04/07 20:18:39;;;;;;;10.70;2.47;;;;;9.50;98951.00;;;;10525487;28;20192;-79
2022/04/07 20:23:41;;;;;;;10.13;2.10;;;;;9.50;98978.00;;;;10567150;27;20249;-78
2022/04/07 20:28:43;;;;;;;4.97;1.50;;;;;9.60;98996.00;;;;10592529;27;20248;-81
2022/04/07 20:33:45;;;;;;;5.03;1.00;;;;;9.50;99032.00;;;;10513691;28;20213;-79
2022/04/07 20:39:07;;;;;;;9.50;1.60;;;;;9.20;99030.00;;;;10530321;28;20205;-82
2022/04/07 20:44:09;;;;;;;8.03;2.00;;;;;9.00;99058.00;;;;10513730;28;20196;-81
2022/04/07 20:49:11;;;;;;;5.77;1.50;;;;;8.20;99069.00;;;;10505909;28;20270;-81
2022/04/07 20:54:13;;;;;;;6.90;1.27;;;;;7.70;99068.00;;;;10552229;28;20215;-82
2022/04/07 20:59:14;;;;;;;5.37;1.10;;;;;7.60;99094.00;;;;10537353;28;20552;-81
2022/04/07 21:04:18;;;;;;;3.87;1.27;;;;;7.60;99106.00;;;;10512917;28;20197;-81
2022/04/07 21:09:20;;;;;;;8.23;1.40;;;;;7.20;99115.00;;;;10537616;28;20587;-83
2022/04/07 21:14:22;;;;;;;5.27;1.30;;;;;6.70;99130.00;;;;10554005;28;20207;-81
2022/04/07 21:19:23;;;;;;;5.43;1.33;;;;;6.60;99140.00;;;;10537412;28;20196;-82
2022/04/07 21:24:25;;;;;;;5.00;1.17;;;;;6.20;99155.00;;;;10571789;27;20196;-81
2022/04/07 21:29:27;;;;;;;3.77;1.20;;;;;6.10;99211.00;;;;10551813;27;20667;-81
2022/04/07 21:34:29;;;;;;;1.60;0.87;;;;;5.90;99247.00;;;;10521611;28;20329;-82
2022/04/07 21:39:32;;;;;;;3.03;1.30;;;;;5.80;99212.00;;;;10536234;28;20216;-81
2022/04/07 21:44:34;;;;;;;2.67;0.90;;;;;5.80;99206.00;;;;10515804;28;20188;-80
2022/04/07 21:49:35;;;;;;;5.23;1.13;;;;;5.70;99206.00;;;;10533036;28;20199;-80
2022/04/07 21:54:37;;;;;;;5.67;1.50;;;;;5.70;99223.00;;;;10566441;27;20613;-79
2022/04/07 21:59:39;;;;;;;3.33;0.93;;;;;5.80;99232.00;;;;10509265;28;20211;-79
2022/04/07 22:04:41;;;;;;;4.23;1.03;;;;;5.90;99243.00;;;;10497431;28;20249;-79
2022/04/07 22:09:43;;;;;;;6.70;1.30;;;;;6.00;99261.00;;;;10490328;28;20203;-80
2022/04/07 22:14:45;;;;;;;6.53;0.90;;;;;6.00;99274.00;;;;10507738;28;20663;-80
2022/04/07 22:19:46;;;;;;;7.30;1.30;;;;;6.00;99283.00;;;;10491328;28;20200;-80
2022/04/07 22:25:04;;;;;;;4.90;1.50;;;;;6.10;99300.00;;;;10576757;27;20241;-80
2022/04/07 22:30:06;;;;;;;5.57;1.83;;;;;6.10;99314.00;;;;10557734;27;20270;-80
2022/04/07 22:35:08;;;;;;;3.67;1.40;;;;;6.10;99319.00;;;;10490563;28;20204;-80
2022/04/07 22:40:12;;;;;;;4.67;1.20;;;;;6.00;99314.00;;;;10507274;28;20216;-80
2022/04/07 22:45:15;;;;;;;2.70;1.00;;;;;5.90;99334.00;;;;10490408;28;20220;-79
2022/04/07 22:50:18;;;;;;;3.53;1.37;;;;;5.90;99329.00;;;;10520934;28;20215;-79
2022/04/07 22:55:20;;;;;;;2.53;1.07;;;;;5.90;99352.00;;;;10572555;27;20260;-80
2022/04/07 23:00:22;;;;;;;4.67;1.20;;;;;5.90;99353.00;;;;10572040;27;20200;-79
2022/04/07 23:05:24;;;;;;;5.93;1.40;;;;;5.90;99368.00;;;;10588241;27;20188;-79
2022/04/07 23:10:26;;;;;;;4.27;1.60;;;;;5.90;99379.00;;;;10554968;28;20245;-80
2022/04/07 23:15:28;;;;;;;7.47;1.90;;;;;5.90;99386.00;;;;10571658;28;20254;-80
2022/04/07 23:20:30;;;;;;;3.57;1.40;;;;;5.90;99404.00;;;;10554515;28;20195;-79
2022/04/07 23:25:32;;;;;;;7.40;1.67;;;;;5.80;99416.00;;;;10520280;28;20197;-79
2022/04/07 23:30:34;;;;;;;7.33;1.80;;;;;5.70;99428.00;;;;10541712;28;20250;-80
2022/04/07 23:35:36;;;;;;;3.73;1.40;;;;;5.70;99429.00;;;;10487580;28;20308;-79
2022/04/07 23:40:42;;;;;;;9.00;1.60;;;;;5.80;99441.00;;;;10529498;28;20748;-80
2022/04/07 23:45:44;;;;;;;4.90;1.37;;;;;5.70;99446.00;;;;10528831;28;20273;-80
2022/04/07 23:50:46;;;;;;;5.63;1.47;;;;;5.70;99450.00;;;;10529403;28;20192;-79
2022/04/07 23:55:48;;;;;;;5.10;1.70;;;;;5.70;99458.00;;;;10568569;28;20311;-80
